Time;durP1;ratioP1;P1;durP2;ratioP2;P2;SDS_P1;SDS_P2;PMS_P1;PMS_P2;Temp;Humidity;BMP_temperature;BMP_pressure;BME280_temperature;BME280_humidity;BME280_pressure;Samples;Min_cycle;Max_cycle;Signal;HPM_P1;HPM_P2
2022/10/13 00:00:16;;;;;;;14.10;10.80;;;;;;;;;;5088675;27;20039;-60
2022/10/13 00:05:41;;;;;;;11.48;9.45;;;;;;;;;;5150515;27;20038;-60
2022/10/13 00:09:03;;;;;;;16.67;10.13;;;;;;;;;;5131451;27;20055;-60
2022/10/13 00:11:54;;;;;;;11.82;9.75;;;;;;;;;;5046931;28;20029;-60
2022/10/13 00:14:55;;;;;;;13.25;9.95;;;;;;;;;;5150356;27;20043;-60
2022/10/13 00:17:41;;;;;;;;;;;;;;;;;;;;;
2022/10/13 00:20:20;;;;;;;13.38;9.98;;;;;;;;;;5150358;27;20031;-60
2022/10/13 00:23:18;;;;;;;12.85;11.05;;;;;;;;;;5150691;27;20031;-60
2022/10/13 00:26:13;;;;;;;15.75;11.80;;;;;;;;;;5143291;27;20070;-60
2022/10/13 00:29:01;;;;;;;11.88;9.80;;;;;;;;;;5129873;28;20083;-60
2022/10/13 00:35:10;;;;;;;17.77;11.43;;;;;;;;;;5127280;27;20070;-60
2022/10/13 00:38:05;;;;;;;17.15;12.93;;;;;;;;;;5130707;28;20031;-60
2022/10/13 00:41:00;;;;;;;15.90;11.70;;;;;;;;;;5126824;27;20043;-60
2022/10/13 00:44:04;;;;;;;19.15;14.35;;;;;;;;;;5147523;28;20039;-60
2022/10/13 00:46:43;;;;;;;22.38;13.63;;;;;;;;;;5149692;28;20023;-60
2022/10/13 00:49:47;;;;;;;17.95;13.65;;;;;;;;;;5131494;28;20042;-60
2022/10/13 00:55:23;;;;;;;15.80;11.90;;;;;;;;;;5046030;28;20033;-60
2022/10/13 00:58:32;;;;;;;20.67;13.70;;;;;;;;;;5047143;28;20022;-60
2022/10/13 01:01:21;;;;;;;22.77;13.48;;;;;;;;;;5041640;28;20037;-60
2022/10/13 01:04:03;;;;;;;19.75;13.02;;;;;;;;;;5118413;28;20091;-60
2022/10/13 01:06:51;;;;;;;23.13;14.07;;;;;;;;;;5150338;28;20027;-60
2022/10/13 01:09:36;;;;;;;15.90;11.57;;;;;;;;;;5046605;28;20137;-60
2022/10/13 01:12:13;;;;;;;18.30;13.25;;;;;;;;;;5147661;28;20469;-60
2022/10/13 01:15:05;;;;;;;18.17;12.88;;;;;;;;;;5149976;28;20098;-60
2022/10/13 01:18:06;;;;;;;23.50;14.02;;;;;;;;;;5150054;28;20018;-60
2022/10/13 01:21:00;;;;;;;17.65;13.75;;;;;;;;;;5149706;28;20030;-60
2022/10/13 01:23:50;;;;;;;22.38;13.85;;;;;;;;;;5131411;28;20035;-60
2022/10/13 01:26:39;;;;;;;19.48;13.30;;;;;;;;;;5131182;28;20043;-60
2022/10/13 01:29:24;;;;;;;20.50;12.95;;;;;;;;;;5149727;28;20024;-60
2022/10/13 01:32:11;;;;;;;19.15;12.93;;;;;;;;;;5149453;28;20026;-60
2022/10/13 01:35:20;;;;;;;;;;;;;;;;;;;;;
2022/10/13 01:38:06;;;;;;;18.92;13.52;;;;;;;;;;5150490;27;20063;-60
2022/10/13 01:40:51;;;;;;;18.73;13.20;;;;;;;;;;5152678;27;20050;-60
2022/10/13 01:43:46;;;;;;;21.15;13.30;;;;;;;;;;5134896;27;20027;-60
2022/10/13 01:46:34;;;;;;;25.30;15.52;;;;;;;;;;5152652;27;20023;-60
2022/10/13 01:52:12;;;;;;;19.63;14.73;;;;;;;;;;5113782;27;20023;-60
2022/10/13 02:00:28;;;;;;;20.08;14.95;;;;;;;;;;5138247;27;20223;-60
2022/10/13 02:03:26;;;;;;;25.08;14.65;;;;;;;;;;5135083;27;20023;-60
2022/10/13 02:06:23;;;;;;;20.98;13.80;;;;;;;;;;5147860;27;20035;-60
2022/10/13 02:12:33;;;;;;;17.58;13.95;;;;;;;;;;5096065;27;20061;-57
2022/10/13 02:18:19;;;;;;;17.30;13.63;;;;;;;;;;5153065;27;20592;-57
2022/10/13 02:26:56;;;;;;;23.52;14.70;;;;;;;;;;5030452;28;20040;-57
2022/10/13 02:29:40;;;;;;;23.92;14.20;;;;;;;;;;5049227;28;20029;-58
2022/10/13 02:38:02;;;;;;;18.65;13.38;;;;;;;;;;5049435;28;20083;-57
2022/10/13 02:40:45;;;;;;;17.08;13.70;;;;;;;;;;5048375;28;20060;-58
2022/10/13 02:43:36;;;;;;;19.80;15.40;;;;;;;;;;5062199;27;20129;-58
2022/10/13 02:46:16;;;;;;;;;;;;;;;;;;;;;
2022/10/13 02:49:01;;;;;;;20.00;14.50;;;;;;;;;;5152110;27;20043;-58
2022/10/13 02:54:39;;;;;;;20.13;14.15;;;;;;;;;;5151964;27;20031;-58
2022/10/13 03:01:06;;;;;;;19.23;13.52;;;;;;;;;;5105668;27;20034;-58
2022/10/13 03:03:32;;;;;;;18.70;13.48;;;;;;;;;;5133210;27;20043;-58
2022/10/13 03:06:01;;;;;;;20.83;13.27;;;;;;;;;;5116303;27;20039;-58
2022/10/13 03:09:06;;;;;;;;;;;;;;;;;;;;;
2022/10/13 03:12:09;;;;;;;20.70;14.88;;;;;;;;;;5151961;27;20457;-58
2022/10/13 03:26:15;;;;;;;15.98;12.80;;;;;;;;;;5151726;27;20092;-58
2022/10/13 03:29:10;;;;;;;21.05;13.43;;;;;;;;;;5133499;27;20031;-59
2022/10/13 03:32:15;;;;;;;20.70;13.10;;;;;;;;;;5143108;27;20027;-58
2022/10/13 03:34:47;;;;;;;26.73;14.13;;;;;;;;;;5082497;27;20108;-59
2022/10/13 03:37:56;;;;;;;18.45;12.75;;;;;;;;;;5136777;27;20026;-59
2022/10/13 03:40:57;;;;;;;17.48;13.68;;;;;;;;;;5115902;27;20051;-59
2022/10/13 03:47:18;;;;;;;20.23;12.57;;;;;;;;;;5136831;27;20039;-59
2022/10/13 03:49:54;;;;;;;17.15;12.95;;;;;;;;;;5115645;27;20397;-59
2022/10/13 03:55:14;;;;;;;15.07;13.27;;;;;;;;;;5130985;27;20038;-58
2022/10/13 04:00:44;;;;;;;12.43;10.35;;;;;;;;;;5135756;27;20109;-58
2022/10/13 04:09:49;;;;;;;15.73;12.15;;;;;;;;;;5093300;28;20085;-58
2022/10/13 04:12:21;;;;;;;13.90;10.70;;;;;;;;;;5031797;28;20044;-58
2022/10/13 04:18:32;;;;;;;18.17;10.05;;;;;;;;;;5052800;28;20477;-58
2022/10/13 04:21:37;;;;;;;16.27;9.05;;;;;;;;;;5053176;28;20033;-58
2022/10/13 04:24:26;;;;;;;15.93;10.25;;;;;;;;;;5052906;28;20513;-58
2022/10/13 04:27:22;;;;;;;20.05;12.38;;;;;;;;;;5033795;28;20037;-58
2022/10/13 04:29:48;;;;;;;14.40;10.98;;;;;;;;;;5072170;28;20501;-58
2022/10/13 04:32:25;;;;;;;13.13;10.82;;;;;;;;;;5105635;28;20024;-58
2022/10/13 04:35:17;;;;;;;12.15;9.27;;;;;;;;;;5121937;28;20035;-58
2022/10/13 04:40:55;;;;;;;14.45;11.13;;;;;;;;;;5145605;27;20071;-58
2022/10/13 04:43:49;;;;;;;;;;;;;;;;;;;;;
2022/10/13 04:46:41;;;;;;;13.43;10.23;;;;;;;;;;5146782;28;20062;-59
2022/10/13 04:49:32;;;;;;;14.00;11.13;;;;;;;;;;5126534;28;20023;-59
2022/10/13 04:54:58;;;;;;;23.35;11.05;;;;;;;;;;5150249;28;20085;-59
2022/10/13 04:57:36;;;;;;;14.90;12.13;;;;;;;;;;5149628;28;20051;-59
2022/10/13 05:00:28;;;;;;;15.23;10.48;;;;;;;;;;5150539;28;20023;-59
2022/10/13 05:03:13;;;;;;;17.23;10.68;;;;;;;;;;5150055;28;20046;-59
2022/10/13 05:06:17;;;;;;;;;;;;;;;;;;;;;
2022/10/13 05:08:58;;;;;;;13.40;10.23;;;;;;;;;;5149891;28;20039;-59
2022/10/13 05:14:45;;;;;;;13.43;11.38;;;;;;;;;;5104899;27;20043;-59
2022/10/13 05:23:17;;;;;;;18.13;11.57;;;;;;;;;;5153745;27;20081;-59
2022/10/13 05:25:58;;;;;;;22.95;11.57;;;;;;;;;;5153310;27;20045;-59
2022/10/13 05:32:13;;;;;;;15.90;11.27;;;;;;;;;;5070559;28;20033;-59
2022/10/13 05:35:03;;;;;;;14.15;11.43;;;;;;;;;;5150346;27;20039;-58
2022/10/13 05:43:59;;;;;;;15.70;12.00;;;;;;;;;;5130888;27;20100;-59
2022/10/13 05:46:44;;;;;;;19.02;11.95;;;;;;;;;;5133037;27;20056;-59
2022/10/13 05:49:14;;;;;;;13.90;10.57;;;;;;;;;;5152480;27;20030;-59
2022/10/13 05:52:06;;;;;;;11.47;10.17;;;;;;;;;;5109848;28;20032;-59
2022/10/13 05:54:36;;;;;;;;;;;;;;;;;;5109189;28;20059;-59
2022/10/13 05:57:55;;;;;;;15.02;11.05;;;;;;;;;;5110479;28;19926;-59
2022/10/13 06:00:39;;;;;;;15.77;10.30;;;;;;;;;;5049348;28;20037;-59
2022/10/13 06:03:40;;;;;;;18.00;11.32;;;;;;;;;;5106047;28;20028;-59
2022/10/13 06:06:32;;;;;;;18.58;11.35;;;;;;;;;;5048103;28;20602;-59
2022/10/13 06:09:07;;;;;;;;;;;;;;;;;;5089045;28;20044;-59
2022/10/13 06:11:52;;;;;;;15.95;10.52;;;;;;;;;;5092311;28;19908;-59
2022/10/13 06:14:28;;;;;;;20.73;11.18;;;;;;;;;;5108987;28;20047;-59
2022/10/13 06:17:00;;;;;;;16.38;12.38;;;;;;;;;;5109520;28;20036;-59
2022/10/13 06:19:46;;;;;;;20.90;13.05;;;;;;;;;;5109267;28;20124;-59
2022/10/13 06:25:33;;;;;;;;;;;;;;;;;;;;;
2022/10/13 06:28:34;;;;;;;14.20;11.25;;;;;;;;;;5150905;27;20046;-58
2022/10/13 06:31:10;;;;;;;26.45;13.13;;;;;;;;;;5107908;27;20061;-59
2022/10/13 06:33:49;;;;;;;15.00;11.98;;;;;;;;;;5138400;27;20063;-59
2022/10/13 06:36:37;;;;;;;19.85;12.57;;;;;;;;;;5137797;27;20403;-59
2022/10/13 06:39:46;;;;;;;19.65;13.98;;;;;;;;;;5138388;27;20031;-58
2022/10/13 06:51:59;;;;;;;17.85;12.60;;;;;;;;;;5050795;28;20032;-59
2022/10/13 07:03:30;;;;;;;14.20;11.15;;;;;;;;;;5002848;28;20037;-59
2022/10/13 07:06:27;;;;;;;15.63;11.32;;;;;;;;;;5116694;28;20483;-59
2022/10/13 07:09:02;;;;;;;19.05;13.48;;;;;;;;;;5098360;28;20587;-59
2022/10/13 07:12:08;;;;;;;19.17;13.25;;;;;;;;;;5097724;28;20039;-59
2022/10/13 07:17:56;;;;;;;13.93;11.27;;;;;;;;;;5073161;28;20029;-60
2022/10/13 07:21:45;;;;;;;18.33;11.88;;;;;;;;;;5073721;28;20033;-60
2022/10/13 07:24:14;;;;;;;;;;;;;;;;;;;;;
2022/10/13 07:26:59;;;;;;;19.45;11.57;;;;;;;;;;5115858;28;20118;-60
2022/10/13 07:30:02;;;;;;;19.90;12.55;;;;;;;;;;5116747;28;20031;-60
2022/10/13 07:32:44;;;;;;;15.82;11.75;;;;;;;;;;5070623;28;20063;-60
2022/10/13 07:35:47;;;;;;;14.32;10.73;;;;;;;;;;5078186;28;20047;-60
2022/10/13 07:38:52;;;;;;;16.70;12.35;;;;;;;;;;5059614;28;20024;-60
2022/10/13 07:41:23;;;;;;;13.25;11.55;;;;;;;;;;5092589;28;20524;-60
2022/10/13 07:47:30;;;;;;;16.55;10.80;;;;;;;;;;5082614;28;20024;-60
2022/10/13 07:50:14;;;;;;;17.17;10.80;;;;;;;;;;5097168;28;20120;-60
2022/10/13 07:53:02;;;;;;;23.38;12.30;;;;;;;;;;5107269;28;20051;-60
2022/10/13 07:55:36;;;;;;;15.43;11.05;;;;;;;;;;5108016;28;20048;-60
2022/10/13 07:58:20;;;;;;;18.42;12.35;;;;;;;;;;5128075;28;20036;-60
2022/10/13 08:04:10;;;;;;;14.10;9.43;;;;;;;;;;5129609;28;20039;-60
2022/10/13 08:07:07;;;;;;;14.38;11.35;;;;;;;;;;5129201;28;20038;-59
2022/10/13 08:09:59;;;;;;;16.42;10.13;;;;;;;;;;5109235;28;20159;-60
2022/10/13 08:12:49;;;;;;;12.13;9.55;;;;;;;;;;5129257;28;20028;-60
2022/10/13 08:15:35;;;;;;;13.85;8.50;;;;;;;;;;5068701;28;20055;-60
2022/10/13 08:18:28;;;;;;;12.50;8.32;;;;;;;;;;5069805;28;20617;-60
2022/10/13 08:21:10;;;;;;;16.95;10.40;;;;;;;;;;5062092;28;20062;-60
2022/10/13 08:24:05;;;;;;;14.15;9.48;;;;;;;;;;5077141;28;20412;-60
2022/10/13 08:27:00;;;;;;;16.10;9.93;;;;;;;;;;5074406;28;20358;-60
2022/10/13 08:29:57;;;;;;;15.00;8.63;;;;;;;;;;5092764;28;20028;-60
2022/10/13 08:32:55;;;;;;;15.70;9.93;;;;;;;;;;5075426;28;20581;-60
2022/10/13 08:35:43;;;;;;;13.60;9.00;;;;;;;;;;5072133;28;20063;-59
2022/10/13 08:38:38;;;;;;;18.77;8.32;;;;;;;;;;5092732;28;20024;-60
2022/10/13 08:41:30;;;;;;;13.93;8.98;;;;;;;;;;5077456;28;20485;-60
2022/10/13 08:44:19;;;;;;;13.90;8.38;;;;;;;;;;5098024;28;20393;-60
2022/10/13 08:47:06;;;;;;;13.77;7.93;;;;;;;;;;5098873;28;20488;-60
2022/10/13 09:06:24;;;;;;;20.83;9.27;;;;;;;;;;5031911;28;20557;-60
2022/10/13 09:09:12;;;;;;;;;;;;;;;;;;;;;
2022/10/13 09:11:55;;;;;;;10.52;8.00;;;;;;;;;;5098907;28;20467;-60
2022/10/13 09:15:17;;;;;;;16.75;7.93;;;;;;;;;;5078849;28;20043;-60
2022/10/13 09:18:24;;;;;;;11.75;7.78;;;;;;;;;;5031549;28;20021;-60
2022/10/13 09:21:09;;;;;;;15.35;8.23;;;;;;;;;;4953755;28;20367;-60
2022/10/13 09:23:55;;;;;;;12.95;7.50;;;;;;;;;;4979217;28;20045;-60
2022/10/13 09:26:51;;;;;;;16.52;7.90;;;;;;;;;;5002901;28;20030;-59
2022/10/13 09:29:39;;;;;;;12.73;8.07;;;;;;;;;;5032188;28;20030;-60
2022/10/13 09:32:49;;;;;;;;;;;;;;;;;;;;;
2022/10/13 09:36:42;;;;;;;8.73;6.97;;;;;;;;;;5114554;28;20034;-60
2022/10/13 09:41:47;;;;;;;10.45;7.38;;;;;;;;;;5094721;28;20074;-60
2022/10/13 09:51:01;;;;;;;12.70;6.90;;;;;;;;;;5113995;28;20114;-57
2022/10/13 09:53:59;;;;;;;8.32;7.20;;;;;;;;;;5117189;28;20426;-57
2022/10/13 09:56:40;;;;;;;10.85;6.07;;;;;;;;;;5115786;28;20064;-57
2022/10/13 09:59:25;;;;;;;10.07;6.78;;;;;;;;;;5136592;27;20038;-57
2022/10/13 10:05:37;;;;;;;8.75;5.63;;;;;;;;;;5138787;27;20035;-57
2022/10/13 10:14:52;;;;;;;9.95;5.18;;;;;;;;;;5003988;28;20125;-59
2022/10/13 10:17:46;;;;;;;;;;;;;;;;;;;;;
2022/10/13 10:20:31;;;;;;;7.75;5.30;;;;;;;;;;5034096;28;20029;-58
2022/10/13 10:23:47;;;;;;;;;;;;;;;;;;;;;
2022/10/13 10:26:35;;;;;;;5.53;4.35;;;;;;;;;;5120900;27;20027;-58
2022/10/13 10:29:20;;;;;;;8.65;5.47;;;;;;;;;;5137721;27;20384;-58
2022/10/13 10:32:01;;;;;;;9.63;5.95;;;;;;;;;;5138186;27;20465;-58
2022/10/13 10:34:48;;;;;;;9.75;4.85;;;;;;;;;;5117732;27;20535;-58
2022/10/13 10:37:45;;;;;;;8.75;5.38;;;;;;;;;;5137573;27;20027;-58
2022/10/13 10:40:31;;;;;;;9.90;6.32;;;;;;;;;;5135824;27;20436;-59
2022/10/13 10:43:26;;;;;;;6.90;4.70;;;;;;;;;;5098076;28;20047;-58
2022/10/13 10:46:14;;;;;;;10.07;6.13;;;;;;;;;;5116309;28;20110;-59
2022/10/13 10:49:16;;;;;;;8.32;6.00;;;;;;;;;;5101864;28;20035;-59
2022/10/13 10:52:23;;;;;;;8.80;5.20;;;;;;;;;;5045485;28;20499;-58
2022/10/13 10:55:08;;;;;;;10.60;5.45;;;;;;;;;;5035249;28;20118;-58
2022/10/13 11:01:14;;;;;;;10.73;5.40;;;;;;;;;;5015260;28;20484;-59
2022/10/13 11:03:56;;;;;;;10.02;6.13;;;;;;;;;;5096807;28;20504;-58
2022/10/13 11:06:44;;;;;;;6.30;5.13;;;;;;;;;;5117305;28;20020;-58
2022/10/13 11:09:39;;;;;;;6.25;4.57;;;;;;;;;;5116903;28;20027;-59
2022/10/13 11:12:39;;;;;;;;;;;;;;;;;;;;;
2022/10/13 11:15:40;;;;;;;10.43;5.57;;;;;;;;;;5075125;28;20385;-58
2022/10/13 11:21:15;;;;;;;9.30;5.47;;;;;;;;;;5108798;28;20076;-58
2022/10/13 11:27:18;;;;;;;10.35;5.28;;;;;;;;;;5053259;28;20076;-58
2022/10/13 11:29:53;;;;;;;8.07;5.57;;;;;;;;;;5110517;28;20023;-58
2022/10/13 11:36:03;;;;;;;9.00;5.53;;;;;;;;;;5107450;28;20099;-59
2022/10/13 11:39:09;;;;;;;14.73;5.30;;;;;;;;;;5122972;28;20046;-60
2022/10/13 11:41:56;;;;;;;8.73;5.25;;;;;;;;;;5124740;27;20054;-59
2022/10/13 11:44:50;;;;;;;7.00;4.95;;;;;;;;;;5096528;28;20055;-59
2022/10/13 11:47:38;;;;;;;6.13;4.70;;;;;;;;;;5097458;28;20031;-59
2022/10/13 11:50:19;;;;;;;7.97;4.90;;;;;;;;;;5116376;28;20028;-59
2022/10/13 11:56:13;;;;;;;9.73;5.13;;;;;;;;;;5115705;28;20489;-59
2022/10/13 11:59:07;;;;;;;6.43;5.07;;;;;;;;;;5072994;28;20048;-58
2022/10/13 12:05:08;;;;;;;7.38;4.00;;;;;;;;;;5073235;28;20151;-59
2022/10/13 12:07:54;;;;;;;9.07;4.80;;;;;;;;;;5073581;28;20032;-59
2022/10/13 12:10:43;;;;;;;7.85;4.70;;;;;;;;;;5056462;28;20505;-59
2022/10/13 12:16:42;;;;;;;6.63;4.35;;;;;;;;;;5072985;28;20032;-59
2022/10/13 12:22:40;;;;;;;;;;;;;;;;;;;;;
2022/10/13 12:28:43;;;;;;;7.90;4.97;;;;;;;;;;5070891;28;20497;-59
2022/10/13 12:34:26;;;;;;;5.88;3.97;;;;;;;;;;5071618;28;20119;-59
2022/10/13 12:37:15;;;;;;;7.35;4.60;;;;;;;;;;5072464;28;20043;-59
2022/10/13 12:43:16;;;;;;;4.63;3.80;;;;;;;;;;5021952;28;20050;-59
2022/10/13 12:45:45;;;;;;;6.88;4.32;;;;;;;;;;5081568;28;20083;-59
2022/10/13 12:48:35;;;;;;;6.72;4.40;;;;;;;;;;5092788;28;20525;-59
2022/10/13 12:58:08;;;;;;;11.13;3.75;;;;;;;;;;5132702;28;20134;-59
2022/10/13 13:03:25;;;;;;;7.72;4.35;;;;;;;;;;5135084;28;20034;-59
2022/10/13 13:06:15;;;;;;;6.70;4.47;;;;;;;;;;5135106;28;20019;-59
2022/10/13 13:08:54;;;;;;;;;;;;;;;;;;;;;
2022/10/13 13:20:36;;;;;;;5.28;3.70;;;;;;;;;;5120396;28;20034;-59
2022/10/13 13:23:33;;;;;;;;;;;;;;;;;;;;;
2022/10/13 13:32:36;;;;;;;4.53;3.85;;;;;;;;;;5104688;28;20110;-59
2022/10/13 13:35:23;;;;;;;;;;;;;;;;;;;;;
2022/10/13 13:38:07;;;;;;;4.38;3.30;;;;;;;;;;5106890;27;20036;-59
2022/10/13 13:41:09;;;;;;;;;;;;;;;;;;;;;
2022/10/13 13:43:50;;;;;;;5.35;3.20;;;;;;;;;;5138874;27;20494;-59
2022/10/13 13:49:47;;;;;;;;;;;;;;;;;;;;;
2022/10/13 13:52:36;;;;;;;6.18;3.58;;;;;;;;;;5134950;27;20118;-58
2022/10/13 13:55:35;;;;;;;;;;;;;;;;;;;;;
2022/10/13 13:58:07;;;;;;;5.70;3.70;;;;;;;;;;5126072;27;20031;-58
2022/10/13 14:00:49;;;;;;;7.70;4.18;;;;;;;;;;5139174;27;20103;-58
2022/10/13 14:04:01;;;;;;;6.95;4.20;;;;;;;;;;5118111;27;20041;-58
2022/10/13 14:06:52;;;;;;;6.15;4.00;;;;;;;;;;5120865;27;20049;-58
2022/10/13 14:09:27;;;;;;;;;;;;;;;;;;5120506;27;20031;-58
2022/10/13 14:12:10;;;;;;;7.07;4.05;;;;;;;;;;5139213;27;19904;-58
2022/10/13 14:14:57;;;;;;;4.35;3.95;;;;;;;;;;5139466;27;20035;-58
2022/10/13 14:17:38;;;;;;;5.78;4.03;;;;;;;;;;5118213;27;20056;-58
2022/10/13 14:20:17;;;;;;;7.25;4.25;;;;;;;;;;5139105;27;20026;-58
2022/10/13 14:26:17;;;;;;;4.35;3.42;;;;;;;;;;5123367;27;20027;-58
2022/10/13 14:29:03;;;;;;;10.73;3.90;;;;;;;;;;5139079;27;20077;-59
2022/10/13 14:31:47;;;;;;;7.22;4.35;;;;;;;;;;5138829;27;20096;-59
2022/10/13 14:34:39;;;;;;;6.40;2.90;;;;;;;;;;5119961;27;20046;-59
2022/10/13 14:37:44;;;;;;;6.25;3.72;;;;;;;;;;5138706;27;20019;-59
2022/10/13 14:40:26;;;;;;;4.22;3.10;;;;;;;;;;5138639;27;20027;-59
2022/10/13 14:42:56;;;;;;;8.30;5.00;;;;;;;;;;5137025;27;20046;-59
2022/10/13 14:48:48;;;;;;;9.82;4.30;;;;;;;;;;5053625;28;19904;-59
2022/10/13 14:51:38;;;;;;;9.73;4.38;;;;;;;;;;5075272;27;20031;-59
2022/10/13 14:54:17;;;;;;;7.93;4.38;;;;;;;;;;5135996;27;20107;-59
2022/10/13 15:02:28;;;;;;;7.13;4.03;;;;;;;;;;5084209;27;20088;-59
2022/10/13 15:05:40;;;;;;;10.93;4.55;;;;;;;;;;5137411;27;20102;-59
2022/10/13 15:08:38;;;;;;;6.18;4.03;;;;;;;;;;5017946;28;20025;-59
2022/10/13 15:11:31;;;;;;;;;;;;;;;;;;;;;
2022/10/13 15:14:12;;;;;;;4.45;3.42;;;;;;;;;;5033604;28;20041;-59
2022/10/13 15:17:02;;;;;;;7.13;4.05;;;;;;;;;;5107391;27;20118;-59
2022/10/13 15:22:53;;;;;;;8.70;4.80;;;;;;;;;;5136024;27;20031;-60
2022/10/13 15:25:38;;;;;;;8.23;4.70;;;;;;;;;;5137256;27;20011;-59
2022/10/13 15:28:07;;;;;;;5.88;4.88;;;;;;;;;;5117733;27;20495;-59
2022/10/13 15:30:43;;;;;;;7.50;5.00;;;;;;;;;;5101258;27;20038;-59
2022/10/13 15:33:40;;;;;;;10.32;5.47;;;;;;;;;;5113025;27;20032;-59
2022/10/13 15:39:06;;;;;;;8.10;4.40;;;;;;;;;;5120952;27;20041;-59
2022/10/13 15:41:35;;;;;;;9.50;5.90;;;;;;;;;;5135976;27;20094;-59
2022/10/13 15:47:39;;;;;;;5.75;4.78;;;;;;;;;;5103049;28;20088;-59
2022/10/13 15:50:17;;;;;;;6.00;4.93;;;;;;;;;;5115823;28;20031;-59
2022/10/13 16:02:21;;;;;;;9.38;5.85;;;;;;;;;;5098762;28;20031;-59
2022/10/13 16:05:06;;;;;;;11.32;6.10;;;;;;;;;;5103918;28;20035;-59
2022/10/13 16:08:26;;;;;;;10.82;5.35;;;;;;;;;;5115868;28;20465;-59
2022/10/13 16:11:19;;;;;;;11.40;6.60;;;;;;;;;;4997159;28;20081;-59
2022/10/13 16:13:54;;;;;;;8.95;6.28;;;;;;;;;;4996105;28;20065;-59
2022/10/13 16:16:51;;;;;;;11.77;6.20;;;;;;;;;;5079053;28;20054;-59
2022/10/13 16:19:42;;;;;;;11.38;6.18;;;;;;;;;;5023989;28;20047;-59
2022/10/13 16:22:37;;;;;;;8.98;6.15;;;;;;;;;;5115989;28;20046;-59
2022/10/13 16:25:22;;;;;;;11.65;7.25;;;;;;;;;;5083108;28;20043;-59
2022/10/13 16:28:16;;;;;;;;;;;;;;;;;;;;;
2022/10/13 16:30:54;;;;;;;12.15;7.70;;;;;;;;;;5100007;28;20110;-59
2022/10/13 16:33:49;;;;;;;7.90;6.60;;;;;;;;;;5115189;28;20032;-59
2022/10/13 16:39:57;;;;;;;;;;;;;;;;;;;;;
2022/10/13 16:42:26;;;;;;;11.55;6.68;;;;;;;;;;5098623;28;20034;-59
2022/10/13 16:44:59;;;;;;;14.93;7.25;;;;;;;;;;5110613;28;20046;-59
2022/10/13 16:47:42;;;;;;;11.25;7.25;;;;;;;;;;5136276;28;20076;-58
2022/10/13 16:50:47;;;;;;;;;;;;;;;;;;;;;
2022/10/13 16:53:17;;;;;;;12.68;7.97;;;;;;;;;;5120192;28;20054;-59
2022/10/13 16:56:09;;;;;;;10.95;9.70;;;;;;;;;;5084321;28;20498;-59
2022/10/13 16:59:03;;;;;;;;;;;;;;;;;;;;;
2022/10/13 17:01:51;;;;;;;15.48;9.40;;;;;;;;;;5135280;28;20540;-58
2022/10/13 17:04:45;;;;;;;10.07;8.93;;;;;;;;;;5141640;28;20091;-58
2022/10/13 17:13:46;;;;;;;14.80;8.35;;;;;;;;;;5021879;28;20075;-59
2022/10/13 17:19:30;;;;;;;13.07;9.32;;;;;;;;;;4998471;28;20033;-59
2022/10/13 17:22:40;;;;;;;11.48;9.85;;;;;;;;;;5019618;28;20400;-59
2022/10/13 17:32:00;;;;;;;12.27;9.07;;;;;;;;;;5138108;27;20035;-58
2022/10/13 17:34:38;;;;;;;;;;;;;;;;;;;;;
2022/10/13 17:37:12;;;;;;;17.58;9.57;;;;;;;;;;5139002;27;20387;-59
2022/10/13 17:52:37;;;;;;;14.55;8.82;;;;;;;;;;5075374;28;20070;-59
2022/10/13 17:58:11;;;;;;;9.55;7.70;;;;;;;;;;5117542;28;20389;-59
2022/10/13 18:01:17;;;;;;;;;;;;;;;;;;;;;
2022/10/13 18:04:06;;;;;;;10.48;9.52;;;;;;;;;;5070167;28;20038;-59
2022/10/13 18:07:01;;;;;;;12.63;9.90;;;;;;;;;;5111830;28;20031;-59
2022/10/13 18:09:53;;;;;;;12.82;8.63;;;;;;;;;;5036302;28;20482;-59
2022/10/13 18:12:45;;;;;;;12.13;10.43;;;;;;;;;;5032396;28;20025;-59
2022/10/13 18:18:48;;;;;;;13.25;9.35;;;;;;;;;;5074626;28;20056;-59
2022/10/13 18:21:47;;;;;;;10.73;9.63;;;;;;;;;;5040848;28;20087;-59
2022/10/13 18:24:32;;;;;;;;;;;;;;;;;;;;;
2022/10/13 18:27:09;;;;;;;;;;;;;;;;;;;;;
2022/10/13 18:32:39;;;;;;;11.00;9.68;;;;;;;;;;5073222;28;20077;-59
2022/10/13 18:38:49;;;;;;;;;;;;;;;;;;;;;
2022/10/13 18:41:15;;;;;;;12.88;10.55;;;;;;;;;;5114575;28;20039;-59
2022/10/13 18:43:58;;;;;;;15.70;11.05;;;;;;;;;;5118456;27;20111;-59
2022/10/13 18:47:13;;;;;;;;;;;;;;;;;;;;;
2022/10/13 18:49:52;;;;;;;21.98;12.98;;;;;;;;;;5130708;27;20027;-59
2022/10/13 18:52:54;;;;;;;21.50;12.63;;;;;;;;;;5074397;28;20037;-59
2022/10/13 18:55:51;;;;;;;11.80;10.60;;;;;;;;;;5031800;28;20046;-59
2022/10/13 19:01:49;;;;;;;19.17;13.15;;;;;;;;;;5021000;28;20087;-59
2022/10/13 19:07:14;;;;;;;15.55;10.75;;;;;;;;;;5034338;28;20064;-59
2022/10/13 19:16:30;;;;;;;15.13;10.18;;;;;;;;;;4983021;28;20035;-60
2022/10/13 19:18:59;;;;;;;12.90;10.35;;;;;;;;;;4953479;29;20393;-60
2022/10/13 19:25:05;;;;;;;13.57;10.93;;;;;;;;;;4954669;29;20094;-60
2022/10/13 19:28:06;;;;;;;12.30;10.45;;;;;;;;;;4954721;29;20031;-60
2022/10/13 19:31:05;;;;;;;16.25;11.30;;;;;;;;;;4916864;29;20123;-60
2022/10/13 19:33:51;;;;;;;15.73;11.15;;;;;;;;;;4938348;29;20450;-58
2022/10/13 19:37:02;;;;;;;;;;;;;;;;;;;;;
2022/10/13 19:40:06;;;;;;;12.75;10.57;;;;;;;;;;4952471;29;20019;-59
2022/10/13 19:42:53;;;;;;;15.35;10.27;;;;;;;;;;4921467;29;20454;-58
2022/10/13 19:45:54;;;;;;;14.65;10.73;;;;;;;;;;5022826;28;20122;-58
2022/10/13 19:48:51;;;;;;;14.57;12.38;;;;;;;;;;5123747;27;20027;-58
2022/10/13 19:51:45;;;;;;;16.30;10.77;;;;;;;;;;5136020;27;20066;-59
2022/10/13 19:54:49;;;;;;;14.68;12.15;;;;;;;;;;5122468;27;20104;-59
2022/10/13 19:57:51;;;;;;;;;;;;;;;;;;;;;
2022/10/13 20:03:32;;;;;;;15.40;12.13;;;;;;;;;;5092758;27;20468;-59
2022/10/13 20:06:14;;;;;;;15.15;10.98;;;;;;;;;;5135795;27;20042;-59
2022/10/13 20:12:08;;;;;;;13.07;10.55;;;;;;;;;;5128350;27;20027;-59
2022/10/13 20:15:22;;;;;;;13.38;10.90;;;;;;;;;;5117187;27;20042;-59
2022/10/13 20:18:11;;;;;;;11.82;10.43;;;;;;;;;;5029458;28;20474;-59
2022/10/13 20:21:02;;;;;;;14.40;12.10;;;;;;;;;;5038894;27;20025;-60
2022/10/13 20:24:15;;;;;;;11.50;10.27;;;;;;;;;;5095921;27;20503;-59
2022/10/13 20:26:46;;;;;;;19.67;13.93;;;;;;;;;;5134721;27;20053;-60
2022/10/13 20:29:24;;;;;;;15.73;13.57;;;;;;;;;;5135898;27;20072;-59
2022/10/13 20:32:25;;;;;;;13.30;11.05;;;;;;;;;;5136332;27;20030;-59
2022/10/13 20:34:57;;;;;;;;;;;;;;;;;;5103197;27;20046;-59
2022/10/13 20:38:03;;;;;;;13.30;11.90;;;;;;;;;;5136374;27;19904;-59
2022/10/13 20:44:01;;;;;;;14.68;11.07;;;;;;;;;;5120567;27;20038;-59
2022/10/13 20:46:47;;;;;;;11.25;10.05;;;;;;;;;;5115436;28;20039;-59
2022/10/13 20:49:55;;;;;;;;;;;;;;;;;;;;;
2022/10/13 20:52:37;;;;;;;12.27;10.23;;;;;;;;;;5008565;28;20040;-59
2022/10/13 20:55:34;;;;;;;;;;;;;;;;;;;;;
2022/10/13 21:01:23;;;;;;;11.02;9.57;;;;;;;;;;5036726;28;20426;-59
2022/10/13 21:04:16;;;;;;;10.98;8.95;;;;;;;;;;5128491;28;20039;-59
2022/10/13 21:16:56;;;;;;;9.98;8.93;;;;;;;;;;5119605;28;20043;-59
2022/10/13 21:19:31;;;;;;;10.25;8.55;;;;;;;;;;5095329;28;20035;-59
2022/10/13 21:25:21;;;;;;;11.15;8.50;;;;;;;;;;5086229;28;20071;-59
2022/10/13 21:28:01;;;;;;;13.32;8.18;;;;;;;;;;5129455;28;20114;-59
2022/10/13 21:30:48;;;;;;;9.30;7.95;;;;;;;;;;5128979;28;20052;-59
2022/10/13 21:45:42;;;;;;;9.93;7.72;;;;;;;;;;5129012;27;20107;-59
2022/10/13 21:48:52;;;;;;;12.95;7.57;;;;;;;;;;5149626;28;20107;-59
2022/10/13 21:51:28;;;;;;;12.20;6.80;;;;;;;;;;5046606;28;20552;-59
2022/10/13 21:54:33;;;;;;;10.95;7.57;;;;;;;;;;5029555;28;20522;-59
2022/10/13 21:57:37;;;;;;;;;;;;;;;;;;;;;
2022/10/13 22:00:20;;;;;;;8.25;6.25;;;;;;;;;;5050386;28;20479;-59
2022/10/13 22:03:14;;;;;;;10.07;5.72;;;;;;;;;;5108954;27;20068;-59
2022/10/13 22:05:55;;;;;;;;;;;;;;;;;;;;;
2022/10/13 22:08:44;;;;;;;7.57;6.00;;;;;;;;;;5152725;27;20059;-59
2022/10/13 22:11:22;;;;;;;12.18;6.95;;;;;;;;;;5153187;27;20043;-59
2022/10/13 22:14:04;;;;;;;12.25;7.13;;;;;;;;;;5152867;27;20372;-59
2022/10/13 22:23:10;;;;;;;;;;;;;;;;;;5063708;28;20047;-59
2022/10/13 22:25:54;;;;;;;10.38;6.13;;;;;;;;;;5087830;28;19950;-59
2022/10/13 22:28:31;;;;;;;7.38;6.60;;;;;;;;;;5089559;28;20051;-59
2022/10/13 22:31:35;;;;;;;10.05;6.25;;;;;;;;;;5089831;28;20076;-59
2022/10/13 22:34:20;;;;;;;9.10;6.05;;;;;;;;;;4992952;28;20109;-59
2022/10/13 22:37:23;;;;;;;9.35;5.15;;;;;;;;;;5008936;28;20038;-59
2022/10/13 22:40:21;;;;;;;6.70;5.65;;;;;;;;;;4993600;28;20431;-59
2022/10/13 22:42:57;;;;;;;8.68;5.85;;;;;;;;;;5009449;28;20053;-59
2022/10/13 22:46:04;;;;;;;;;;;;;;;;;;;;;
2022/10/13 22:48:57;;;;;;;;;;;;;;;;;;;;;
2022/10/13 22:57:38;;;;;;;14.65;5.72;;;;;;;;;;5054976;27;20032;-59
2022/10/13 23:00:12;;;;;;;7.93;5.70;;;;;;;;;;5152293;27;20071;-59
2022/10/13 23:06:10;;;;;;;5.72;5.05;;;;;;;;;;5130856;27;20035;-59
2022/10/13 23:11:52;;;;;;;6.75;6.00;;;;;;;;;;5148769;27;20038;-59
2022/10/13 23:14:32;;;;;;;13.70;6.25;;;;;;;;;;5151453;27;20131;-59
2022/10/13 23:17:36;;;;;;;6.53;5.65;;;;;;;;;;5151399;27;20030;-59
2022/10/13 23:20:30;;;;;;;7.68;5.80;;;;;;;;;;5047998;28;20421;-59
2022/10/13 23:23:24;;;;;;;6.65;5.50;;;;;;;;;;5151693;27;20357;-59
2022/10/13 23:26:11;;;;;;;8.27;5.57;;;;;;;;;;5151098;27;20405;-59
2022/10/13 23:29:18;;;;;;;5.97;4.70;;;;;;;;;;5133185;27;20027;-59
2022/10/13 23:46:25;;;;;;;5.72;5.03;;;;;;;;;;5116236;28;20043;-60